createdAt,value
2022-08-12T00:02:04.157Z,1.70
2022-08-12T00:04:52.433Z,1.90
2022-08-12T00:07:38.217Z,1.70
2022-08-12T00:10:24.249Z,2.47
2022-08-12T00:13:10.369Z,2.33
2022-08-12T00:16:00.656Z,2.00
2022-08-12T00:18:46.177Z,1.87
2022-08-12T00:21:32.152Z,2.20
2022-08-12T00:24:22.457Z,2.60
2022-08-12T00:27:08.286Z,2.13
2022-08-12T00:29:54.586Z,1.60
2022-08-12T00:32:46.464Z,1.93
2022-08-12T00:35:40.849Z,1.77
2022-08-12T00:38:26.930Z,1.80
2022-08-12T00:41:13.013Z,1.87
2022-08-12T00:43:44.929Z,2.23
2022-08-12T00:46:30.491Z,1.90
2022-08-12T00:49:01.598Z,2.07
2022-08-12T00:51:51.612Z,2.20
2022-08-12T00:54:21.243Z,2.73
2022-08-12T00:56:50.909Z,1.80
2022-08-12T00:59:18.963Z,1.83
2022-08-12T01:02:02.284Z,2.10
2022-08-12T01:04:57.592Z,2.13
2022-08-12T01:07:44.990Z,2.20
2022-08-12T01:10:32.909Z,2.03
2022-08-12T01:13:19.109Z,2.23
2022-08-12T01:15:50.389Z,2.27
2022-08-12T01:18:21.738Z,2.40
2022-08-12T01:21:00.705Z,2.63
2022-08-12T01:23:43.415Z,2.43
2022-08-12T01:26:17.979Z,2.00
2022-08-12T01:28:48.325Z,2.33
2022-08-12T01:31:19.816Z,2.10
2022-08-12T01:33:59.597Z,3.17
2022-08-12T01:36:28.730Z,2.30
2022-08-12T01:38:58.980Z,3.67
2022-08-12T01:41:31.074Z,2.17
2022-08-12T01:44:02.181Z,2.63
2022-08-12T01:46:44.938Z,2.03
2022-08-12T01:49:36.841Z,2.43
2022-08-12T01:52:22.740Z,2.20
2022-08-12T01:54:52.258Z,1.90
2022-08-12T01:57:59.734Z,2.10
2022-08-12T02:00:19.832Z,2.60
2022-08-12T02:02:54.173Z,2.73
2022-08-12T02:05:51.984Z,2.20
2022-08-12T02:08:52.314Z,2.37
2022-08-12T02:11:25.375Z,2.60
2022-08-12T02:14:11.244Z,3.43
2022-08-12T02:16:58.558Z,2.37
2022-08-12T02:19:43.376Z,2.40
2022-08-12T02:22:27.426Z,2.20
2022-08-12T02:25:04.448Z,3.67
2022-08-12T02:27:36.448Z,2.10
2022-08-12T02:30:08.778Z,2.37
2022-08-12T02:32:42.088Z,2.43
2022-08-12T02:35:14.598Z,2.17
2022-08-12T02:37:45.349Z,2.40
2022-08-12T02:40:15.817Z,2.40
2022-08-12T02:42:51.945Z,2.40
2022-08-12T02:45:26.521Z,2.23
2022-08-12T02:48:01.155Z,2.00
2022-08-12T02:51:09.189Z,2.03
2022-08-12T02:53:39.293Z,2.43
2022-08-12T02:56:08.294Z,3.30
2022-08-12T02:58:41.169Z,2.30
2022-08-12T03:01:10.917Z,2.33
2022-08-12T03:03:40.976Z,2.47
2022-08-12T03:06:10.424Z,2.17
2022-08-12T03:08:42.147Z,3.43
2022-08-12T03:11:16.125Z,2.63
2022-08-12T03:13:48.781Z,2.23
2022-08-12T03:16:19.389Z,2.53
2022-08-12T03:18:47.450Z,1.70
2022-08-12T03:21:58.035Z,2.20
2022-08-12T03:24:09.096Z,2.40
2022-08-12T03:26:38.119Z,2.40
2022-08-12T03:29:06.919Z,2.40
2022-08-12T03:31:36.340Z,2.23
2022-08-12T03:38:15.987Z,1.80
2022-08-12T03:41:15.709Z,2.03
2022-08-12T03:44:08.916Z,1.70
2022-08-12T03:47:00.722Z,2.00
2022-08-12T03:49:45.951Z,2.00
2022-08-12T03:52:31.493Z,2.10
2022-08-12T03:55:16.849Z,2.97
2022-08-12T03:58:02.346Z,2.10
2022-08-12T04:00:31.066Z,3.00
2022-08-12T04:03:01.338Z,2.40
2022-08-12T04:05:54.449Z,2.90
2022-08-12T04:08:19.148Z,2.70
2022-08-12T04:11:04.419Z,2.93
2022-08-12T04:13:32.245Z,2.90
2022-08-12T04:16:02.090Z,2.80
2022-08-12T04:18:32.693Z,4.57
2022-08-12T04:21:02.545Z,2.43
2022-08-12T04:23:33.628Z,2.50
2022-08-12T04:26:01.455Z,2.70
2022-08-12T04:28:29.738Z,2.80
2022-08-12T04:30:58.000Z,2.63
2022-08-12T04:33:26.920Z,2.80
2022-08-12T04:35:57.204Z,2.63
2022-08-12T04:38:26.674Z,3.87
2022-08-12T04:40:55.910Z,2.30
2022-08-12T04:44:01.630Z,2.80
2022-08-12T04:46:13.580Z,2.37
2022-08-12T04:48:41.528Z,2.20
2022-08-12T04:51:11.017Z,2.93
2022-08-12T04:53:39.013Z,2.50
2022-08-12T04:56:07.237Z,2.10
2022-08-12T04:58:36.202Z,2.70
2022-08-12T05:01:04.336Z,2.20
2022-08-12T05:03:46.327Z,2.63
2022-08-12T05:06:18.940Z,2.03
2022-08-12T05:08:56.238Z,2.47
2022-08-12T05:11:24.948Z,2.20
2022-08-12T05:13:59.486Z,2.10
2022-08-12T05:16:30.917Z,2.17
2022-08-12T05:18:59.489Z,1.97
2022-08-12T05:21:28.706Z,2.00
2022-08-12T05:23:56.699Z,1.80
2022-08-12T05:26:24.928Z,1.87
2022-08-12T05:28:53.961Z,1.83
2022-08-12T05:31:45.565Z,1.70
2022-08-12T05:34:10.177Z,1.70
2022-08-12T05:36:40.356Z,2.07
2022-08-12T05:39:08.163Z,1.73
2022-08-12T05:41:37.801Z,2.10
2022-08-12T05:44:07.613Z,1.60
2022-08-12T05:46:37.528Z,2.07
2022-08-12T05:49:06.634Z,1.30
2022-08-12T05:51:39.699Z,1.70
2022-08-12T05:54:11.032Z,1.43
2022-08-12T05:56:40.009Z,1.40
2022-08-12T05:59:10.938Z,1.27
2022-08-12T06:02:11.538Z,1.27
2022-08-12T06:04:28.192Z,1.30
2022-08-12T06:06:56.009Z,1.20
2022-08-12T06:09:26.302Z,1.50
2022-08-12T06:12:05.998Z,1.67
2022-08-12T06:14:36.754Z,1.50
2022-08-12T06:17:07.422Z,1.53
2022-08-12T06:20:28.418Z,1.30
2022-08-12T06:22:23.643Z,1.10
2022-08-12T06:24:53.809Z,1.80
2022-08-12T06:27:21.882Z,1.40
2022-08-12T06:30:09.625Z,2.30
2022-08-12T06:32:47.482Z,1.57
2022-08-12T06:35:25.936Z,1.40
2022-08-12T06:38:16.893Z,1.53
2022-08-12T06:41:05.064Z,1.57
2022-08-12T06:44:06.597Z,1.80
2022-08-12T06:46:22.636Z,1.53
2022-08-12T06:48:55.002Z,2.60
2022-08-12T06:51:22.860Z,1.43
2022-08-12T06:53:50.770Z,1.93
2022-08-12T06:56:20.469Z,1.50
2022-08-12T06:58:48.349Z,1.50
2022-08-12T07:01:17.466Z,1.40
2022-08-12T07:03:45.672Z,0.90
2022-08-12T07:06:13.518Z,1.40
2022-08-12T07:08:43.481Z,1.00
2022-08-12T07:11:13.244Z,1.10
2022-08-12T07:14:02.326Z,1.73
2022-08-12T07:16:48.755Z,1.20
2022-08-12T07:19:16.909Z,1.40
2022-08-12T07:22:00.403Z,1.13
2022-08-12T07:24:35.805Z,1.80
2022-08-12T07:27:03.648Z,1.40
2022-08-12T07:30:03.436Z,1.30
2022-08-12T07:32:23.569Z,2.00
2022-08-12T07:34:51.437Z,2.03
2022-08-12T07:37:19.249Z,3.47
2022-08-12T07:39:58.709Z,1.77
2022-08-12T07:42:28.448Z,2.13
2022-08-12T07:44:57.708Z,2.50
2022-08-12T07:47:27.404Z,1.33
2022-08-12T07:50:05.585Z,1.50
2022-08-12T07:52:35.269Z,1.30
2022-08-12T07:55:04.210Z,2.70
2022-08-12T07:57:33.439Z,1.50
2022-08-12T08:00:05.610Z,1.87
2022-08-12T08:02:36.128Z,1.53
2022-08-12T08:05:04.288Z,1.53
2022-08-12T08:07:32.239Z,1.80
2022-08-12T08:10:02.416Z,1.70
2022-08-12T08:12:49.157Z,1.33
2022-08-12T08:15:20.090Z,3.40
2022-08-12T08:17:57.624Z,1.97
2022-08-12T08:20:28.629Z,1.53
2022-08-12T08:23:05.561Z,1.30
2022-08-12T08:25:37.163Z,2.23
2022-08-12T08:28:08.896Z,2.83
2022-08-12T08:30:39.832Z,1.50
2022-08-12T08:33:24.813Z,1.33
2022-08-12T08:35:58.641Z,3.30
2022-08-12T08:38:31.945Z,1.50
2022-08-12T08:42:19.266Z,1.30
2022-08-12T08:44:06.764Z,1.83
2022-08-12T08:46:37.739Z,1.40
2022-08-12T08:49:06.505Z,1.33
2022-08-12T08:51:35.157Z,1.30
2022-08-12T08:54:03.222Z,1.30
2022-08-12T08:56:31.165Z,1.20
2022-08-12T08:58:59.209Z,1.40
2022-08-12T09:01:37.348Z,1.20
2022-08-12T09:05:09.842Z,1.20
2022-08-12T09:07:00.593Z,1.30
2022-08-12T09:10:02.781Z,1.50
2022-08-12T09:12:55.067Z,1.23
2022-08-12T09:18:12.669Z,1.30
2022-08-12T09:20:43.921Z,1.10
2022-08-12T09:28:57.534Z,1.33
2022-08-12T09:32:04.012Z,1.83
2022-08-12T09:34:27.608Z,2.20
2022-08-12T09:37:19.463Z,1.27
2022-08-12T09:40:01.643Z,1.50
2022-08-12T09:43:16.713Z,1.10
2022-08-12T09:46:06.220Z,1.20
2022-08-12T09:48:34.910Z,0.87
2022-08-12T09:51:10.675Z,1.30
2022-08-12T09:53:40.743Z,1.03
2022-08-12T09:56:59.022Z,1.50
2022-08-12T09:59:02.317Z,3.67
2022-08-12T10:01:35.750Z,2.73
2022-08-12T10:04:20.580Z,1.30
2022-08-12T10:06:55.631Z,1.03
2022-08-12T10:09:56.907Z,1.13
2022-08-12T10:12:33.274Z,1.37
2022-08-12T10:15:01.586Z,1.57
2022-08-12T10:17:29.697Z,1.20
2022-08-12T10:19:59.811Z,1.20
2022-08-12T10:22:49.101Z,1.67
2022-08-12T10:26:35.516Z,1.00
2022-08-12T10:28:41.752Z,2.03
2022-08-12T10:31:29.528Z,1.20
2022-08-12T10:34:26.001Z,0.97
2022-08-12T10:36:58.641Z,0.90
2022-08-12T10:40:01.176Z,1.00
2022-08-12T10:42:45.312Z,1.23
2022-08-12T10:45:18.182Z,1.00
2022-08-12T10:48:07.815Z,1.30
2022-08-12T10:51:01.484Z,1.00
2022-08-12T10:53:45.989Z,1.20
2022-08-12T10:56:16.997Z,1.00
2022-08-12T10:58:47.001Z,0.83
2022-08-12T11:01:49.638Z,1.50
2022-08-12T11:04:22.845Z,1.07
2022-08-12T11:07:06.906Z,1.10
2022-08-12T11:09:59.939Z,1.10
2022-08-12T11:12:55.111Z,0.97
2022-08-12T11:15:24.428Z,1.63
2022-08-12T11:18:12.036Z,1.10
2022-08-12T11:20:47.377Z,1.67
2022-08-12T11:23:25.514Z,0.73
2022-08-12T11:26:05.975Z,0.70
2022-08-12T11:28:37.668Z,2.50
2022-08-12T11:31:09.810Z,0.80
2022-08-12T11:34:05.100Z,0.70
2022-08-12T11:36:28.564Z,1.10
2022-08-12T11:38:57.765Z,1.13
2022-08-12T11:41:31.738Z,1.50
2022-08-12T11:44:35.187Z,2.70
2022-08-12T11:46:53.180Z,0.80
2022-08-12T11:49:31.081Z,0.60
2022-08-12T11:52:02.600Z,1.47
2022-08-12T11:54:31.376Z,0.90
2022-08-12T11:57:02.492Z,1.57
2022-08-12T12:02:21.501Z,1.33
2022-08-12T12:04:52.683Z,0.93
2022-08-12T12:08:36.377Z,1.10
2022-08-12T12:10:11.450Z,1.80
2022-08-12T12:12:41.483Z,1.13
2022-08-12T12:15:24.719Z,0.97
2022-08-12T12:17:55.627Z,0.70
2022-08-12T12:20:25.899Z,0.80
2022-08-12T12:22:55.641Z,0.67
2022-08-12T12:26:06.628Z,1.20
2022-08-12T12:28:37.439Z,1.00
2022-08-12T12:31:01.803Z,0.90
2022-08-12T12:33:46.204Z,0.97
2022-08-12T12:36:23.136Z,0.90
2022-08-12T12:38:53.093Z,1.13
2022-08-12T12:41:20.920Z,1.13
2022-08-12T12:44:03.998Z,1.03
2022-08-12T12:46:33.745Z,0.93
2022-08-12T12:49:01.550Z,0.83
2022-08-12T12:52:06.797Z,0.80
2022-08-12T12:54:28.946Z,0.90
2022-08-12T12:56:57.009Z,1.50
2022-08-12T12:59:56.435Z,1.00
2022-08-12T13:02:32.026Z,1.40
2022-08-12T13:05:01.020Z,0.80
2022-08-12T13:07:49.279Z,0.80
2022-08-12T13:10:18.200Z,0.87
2022-08-12T13:12:47.356Z,1.00
2022-08-12T13:15:43.527Z,2.57
2022-08-12T13:18:07.264Z,0.80
2022-08-12T13:20:38.445Z,1.10
2022-08-12T13:23:36.734Z,0.77
2022-08-12T13:25:59.028Z,0.77
2022-08-12T13:28:29.265Z,0.87
2022-08-12T13:30:58.390Z,1.23
2022-08-12T13:33:28.749Z,2.30
2022-08-12T13:36:05.622Z,0.73
2022-08-12T13:38:36.034Z,0.90
2022-08-12T13:41:11.104Z,0.90
2022-08-12T13:43:41.303Z,1.10
2022-08-12T13:46:12.199Z,1.20
2022-08-12T13:48:44.749Z,1.03
2022-08-12T13:51:13.232Z,1.00
2022-08-12T13:53:59.261Z,0.80
2022-08-12T13:56:34.727Z,0.97
2022-08-12T13:59:05.563Z,0.90
2022-08-12T14:01:40.467Z,1.13
2022-08-12T14:04:11.900Z,0.77
2022-08-12T14:06:40.059Z,0.93
2022-08-12T14:09:15.549Z,1.27
2022-08-12T14:11:58.518Z,1.30
2022-08-12T14:14:28.077Z,1.00
2022-08-12T14:17:02.327Z,0.97
2022-08-12T14:19:35.815Z,0.80
2022-08-12T14:22:06.645Z,0.80
2022-08-12T14:24:40.423Z,1.47
2022-08-12T14:27:10.632Z,0.90
2022-08-12T14:30:04.967Z,0.90
2022-08-12T14:32:34.980Z,0.90
2022-08-12T14:35:08.990Z,0.83
2022-08-12T14:37:56.196Z,0.70
2022-08-12T14:40:27.850Z,1.77
2022-08-12T14:42:57.316Z,1.00
2022-08-12T14:45:45.482Z,0.80
2022-08-12T14:48:15.144Z,0.93
2022-08-12T14:51:09.463Z,1.10
2022-08-12T14:59:57.180Z,0.90
2022-08-12T15:02:20.476Z,0.83
2022-08-12T15:04:59.337Z,2.03
2022-08-12T15:07:34.396Z,2.73
2022-08-12T15:10:31.150Z,1.90
2022-08-12T15:13:06.797Z,1.23
2022-08-12T15:15:38.480Z,0.80
2022-08-12T15:18:13.919Z,0.90
2022-08-12T15:20:42.329Z,1.10
2022-08-12T15:23:17.631Z,2.27
2022-08-12T15:25:49.312Z,1.13
2022-08-12T15:28:29.562Z,1.80
2022-08-12T15:31:00.727Z,0.80
2022-08-12T15:33:44.689Z,1.20
2022-08-12T15:36:14.745Z,1.30
2022-08-12T15:38:48.881Z,1.17
2022-08-12T15:41:22.065Z,1.00
2022-08-12T15:44:36.536Z,1.07
2022-08-12T15:46:39.001Z,0.80
2022-08-12T15:49:16.977Z,1.57
2022-08-12T15:51:58.269Z,1.30
2022-08-12T15:54:37.293Z,0.90
2022-08-12T15:57:17.176Z,1.13
2022-08-12T16:00:00.215Z,1.17
2022-08-12T16:02:41.525Z,0.93
2022-08-12T16:06:11.121Z,1.20
2022-08-12T16:08:13.254Z,2.10
2022-08-12T16:10:46.829Z,0.83
2022-08-12T16:13:18.050Z,1.63
2022-08-12T16:16:02.837Z,1.10
2022-08-12T16:18:33.303Z,1.57
2022-08-12T16:21:01.845Z,1.20
2022-08-12T16:23:52.266Z,0.73
2022-08-12T16:26:27.300Z,1.40
2022-08-12T16:29:14.639Z,1.27
2022-08-12T16:31:44.315Z,1.00
2022-08-12T16:34:25.720Z,1.73
2022-08-12T16:37:04.693Z,1.00
2022-08-12T16:39:59.951Z,0.83
2022-08-12T16:42:28.026Z,1.10
2022-08-12T16:44:57.074Z,1.77
2022-08-12T16:47:27.297Z,1.93
2022-08-12T16:49:57.566Z,0.90
2022-08-12T16:52:25.389Z,1.00
2022-08-12T16:54:53.970Z,0.90
2022-08-12T16:57:43.004Z,0.93
2022-08-12T17:00:16.948Z,1.23
2022-08-12T17:02:50.613Z,0.97
2022-08-12T17:05:30.909Z,1.00
2022-08-12T17:08:00.921Z,0.87
2022-08-12T17:10:36.614Z,2.13
2022-08-12T17:13:09.527Z,1.37
2022-08-12T17:15:56.912Z,1.10
2022-08-12T17:18:44.009Z,1.83
2022-08-12T17:21:19.887Z,0.93
2022-08-12T17:23:53.813Z,0.87
2022-08-12T17:26:22.791Z,1.60
2022-08-12T17:28:59.052Z,0.90
2022-08-12T17:32:00.612Z,0.80
2022-08-12T17:34:38.456Z,1.20
2022-08-12T17:37:07.153Z,1.00
2022-08-12T17:40:07.512Z,1.80
2022-08-12T17:42:34.549Z,1.00
2022-08-12T17:45:18.245Z,1.00
2022-08-12T17:48:04.922Z,1.33
2022-08-12T17:50:35.705Z,1.77
2022-08-12T17:53:03.930Z,1.13
2022-08-12T17:55:40.668Z,1.20
2022-08-12T17:58:13.737Z,1.00
2022-08-12T18:00:45.302Z,1.07
2022-08-12T18:04:04.741Z,0.90
2022-08-12T18:06:14.101Z,1.57
2022-08-12T18:08:54.407Z,1.00
2022-08-12T18:12:04.009Z,1.47
2022-08-12T18:14:30.936Z,1.53
2022-08-12T18:17:02.568Z,2.37
2022-08-12T18:20:04.091Z,1.87
2022-08-12T18:22:21.873Z,1.53
2022-08-12T18:25:00.743Z,0.80
2022-08-12T18:27:44.090Z,1.00
2022-08-12T18:30:20.292Z,0.87
2022-08-12T18:33:03.492Z,1.10
2022-08-12T18:35:46.891Z,0.97
2022-08-12T18:38:21.752Z,1.30
2022-08-12T18:41:09.506Z,2.03
2022-08-12T18:43:57.421Z,0.90
2022-08-12T18:46:34.738Z,1.20
2022-08-12T18:49:18.364Z,1.17
2022-08-12T18:51:55.266Z,0.90
2022-08-12T18:54:32.364Z,0.90
2022-08-12T18:57:03.747Z,1.00
2022-08-12T19:00:00.902Z,0.90
2022-08-12T19:02:25.150Z,0.70
2022-08-12T19:04:54.928Z,0.90
2022-08-12T19:07:29.891Z,0.80
2022-08-12T19:10:14.027Z,1.17
2022-08-12T19:13:00.626Z,0.70
2022-08-12T19:15:30.028Z,1.00
2022-08-12T19:18:02.579Z,1.07
2022-08-12T19:20:32.762Z,0.90
2022-08-12T19:23:07.154Z,0.80
2022-08-12T19:26:01.434Z,1.13
2022-08-12T19:28:29.865Z,1.17
2022-08-12T19:31:56.927Z,1.17
2022-08-12T19:37:20.239Z,1.00
2022-08-12T19:40:09.344Z,1.27
2022-08-12T19:42:42.703Z,1.00
2022-08-12T19:45:13.862Z,1.17
2022-08-12T19:47:44.602Z,1.07
2022-08-12T19:50:13.550Z,1.00
2022-08-12T19:52:53.067Z,0.97
2022-08-12T19:55:23.209Z,0.97
2022-08-12T19:58:02.880Z,0.90
2022-08-12T20:00:34.996Z,0.90
2022-08-12T20:03:05.193Z,1.23
2022-08-12T20:06:05.252Z,1.00
2022-08-12T20:08:33.282Z,1.30
2022-08-12T20:12:13.147Z,0.93
2022-08-12T20:14:00.599Z,1.07
2022-08-12T20:17:01.680Z,1.10
2022-08-12T20:19:53.295Z,1.13
2022-08-12T20:22:23.948Z,1.27
2022-08-12T20:25:01.683Z,1.53
2022-08-12T20:28:04.826Z,1.20
2022-08-12T20:30:37.462Z,1.20
2022-08-12T20:33:17.758Z,1.47
2022-08-12T20:36:13.594Z,1.30
2022-08-12T20:38:38.126Z,1.60
2022-08-12T20:41:16.467Z,1.30
2022-08-12T20:43:49.177Z,1.73
2022-08-12T20:46:17.560Z,1.30
2022-08-12T20:48:47.023Z,1.40
2022-08-12T20:51:23.232Z,1.40
2022-08-12T20:53:57.646Z,1.20
2022-08-12T20:56:32.762Z,1.37
2022-08-12T20:59:02.646Z,2.00
2022-08-12T21:01:45.997Z,1.40
2022-08-12T21:04:34.464Z,1.43
2022-08-12T21:07:08.467Z,1.30
2022-08-12T21:09:41.466Z,1.63
2022-08-12T21:12:27.503Z,1.40
2022-08-12T21:15:23.539Z,1.60
2022-08-12T21:18:00.912Z,1.50
2022-08-12T21:20:36.894Z,2.20
2022-08-12T21:23:05.974Z,2.53
2022-08-12T21:25:36.181Z,1.50
2022-08-12T21:28:14.621Z,2.20
2022-08-12T21:31:11.505Z,1.63
2022-08-12T21:33:32.072Z,1.80
2022-08-12T21:36:22.739Z,1.70
2022-08-12T21:39:01.740Z,1.50
2022-08-12T21:41:51.175Z,1.70
2022-08-12T21:44:32.448Z,1.70
2022-08-12T21:47:18.937Z,2.00
2022-08-12T21:50:02.232Z,1.93
2022-08-12T21:52:34.459Z,1.40
2022-08-12T21:55:05.289Z,1.70
2022-08-12T21:57:51.425Z,1.60
2022-08-12T22:00:32.934Z,1.70
2022-08-12T22:04:01.814Z,1.90
2022-08-12T22:06:30.764Z,1.70
2022-08-12T22:09:17.061Z,1.70
2022-08-12T22:11:49.234Z,1.63
2022-08-12T22:14:25.236Z,1.90
2022-08-12T22:16:56.050Z,2.47
2022-08-12T22:19:25.084Z,2.33
2022-08-12T22:21:56.227Z,2.00
2022-08-12T22:24:29.880Z,1.80
2022-08-12T22:26:59.401Z,1.50
2022-08-12T22:29:53.827Z,1.40
2022-08-12T22:32:26.284Z,2.40
2022-08-12T22:35:12.712Z,1.60
2022-08-12T22:37:53.614Z,1.50
2022-08-12T22:40:24.113Z,1.80
2022-08-12T22:43:15.239Z,1.87
2022-08-12T22:46:01.039Z,1.80
2022-08-12T22:48:30.892Z,2.00
2022-08-12T22:50:59.387Z,1.77
2022-08-12T22:53:36.367Z,1.73
2022-08-12T22:56:07.095Z,1.73
2022-08-12T22:58:41.390Z,2.40
2022-08-12T23:01:21.104Z,2.70
2022-08-12T23:03:53.963Z,1.70
2022-08-12T23:06:24.142Z,2.70
2022-08-12T23:08:52.309Z,1.70
2022-08-12T23:11:23.963Z,2.23
2022-08-12T23:13:56.780Z,1.70
2022-08-12T23:16:31.117Z,2.03
2022-08-12T23:19:10.666Z,1.67
2022-08-12T23:22:03.932Z,1.57
2022-08-12T23:24:41.191Z,1.60
2022-08-12T23:27:50.403Z,1.80
2022-08-12T23:30:24.715Z,2.10
2022-08-12T23:33:00.045Z,1.50
2022-08-12T23:35:45.815Z,1.80
2022-08-12T23:38:31.431Z,1.80
2022-08-12T23:41:01.599Z,2.73
2022-08-12T23:43:40.071Z,2.87
2022-08-12T23:46:10.209Z,1.67
2022-08-12T23:48:38.939Z,1.87
2022-08-12T23:51:23.668Z,1.70
2022-08-12T23:53:59.762Z,3.13
2022-08-12T23:56:29.095Z,1.77
2022-08-12T23:58:56.917Z,1.67
